createdAt,value
2024-01-04T00:02:51.806Z,97944.59
2024-01-04T00:07:48.389Z,97953.47
2024-01-04T00:12:53.405Z,97967.53
2024-01-04T00:17:49.958Z,97958.25
2024-01-04T00:22:46.881Z,97980.41
2024-01-04T00:27:43.285Z,97991.31
2024-01-04T00:32:39.850Z,98002.53
2024-01-04T00:37:36.404Z,98011.72
2024-01-04T00:42:32.849Z,98011.22
2024-01-04T00:47:29.251Z,98021.09
2024-01-04T00:52:25.721Z,98028.97
2024-01-04T00:57:22.121Z,98028.44
2024-01-04T01:02:18.564Z,98031.75
2024-01-04T01:07:15.046Z,98047.09
2024-01-04T01:12:11.718Z,98061.78
2024-01-04T01:17:08.159Z,98073.47
2024-01-04T01:22:04.540Z,98081.72
2024-01-04T01:27:01.117Z,98090.50
2024-01-04T01:31:57.549Z,98096.63
2024-01-04T01:36:54.133Z,98115.78
2024-01-04T01:41:52.970Z,98123.56
2024-01-04T01:46:49.405Z,98138.28
2024-01-04T01:51:45.986Z,98149.88
2024-01-04T01:56:42.545Z,98162.56
2024-01-04T02:01:39.041Z,98185.00
2024-01-04T02:06:35.579Z,98179.63
2024-01-04T02:11:32.121Z,98199.78
2024-01-04T02:16:29.489Z,98218.28
2024-01-04T02:21:25.896Z,98215.34
2024-01-04T02:26:22.316Z,98225.31
2024-01-04T02:31:18.707Z,98251.63
2024-01-04T02:36:15.104Z,98267.31
2024-01-04T02:41:11.520Z,98280.84
2024-01-04T02:46:07.915Z,98295.78
2024-01-04T02:51:04.441Z,98302.88
2024-01-04T02:56:01.045Z,98302.31
2024-01-04T03:00:58.297Z,98304.13
2024-01-04T03:05:55.447Z,98310.25
2024-01-04T03:10:52.471Z,98319.19
2024-01-04T03:15:48.917Z,98332.53
2024-01-04T03:20:45.347Z,98335.47
2024-01-04T03:25:41.980Z,98329.34
2024-01-04T03:30:38.366Z,98340.06
2024-01-04T03:35:34.763Z,98351.06
2024-01-04T03:40:31.188Z,98358.47
2024-01-04T03:45:27.776Z,98354.19
2024-01-04T03:50:24.268Z,98362.47
2024-01-04T03:55:20.986Z,98352.34
2024-01-04T04:00:19.062Z,98359.72
2024-01-04T04:05:15.683Z,98354.88
2024-01-04T04:10:12.102Z,98360.75
2024-01-04T04:15:10.162Z,98364.66
2024-01-04T04:20:06.906Z,98356.84
2024-01-04T04:25:03.405Z,98360.06
2024-01-04T04:29:59.793Z,98371.44
2024-01-04T04:34:56.399Z,98380.94
2024-01-04T04:39:52.787Z,98387.34
2024-01-04T04:44:49.177Z,98397.88
2024-01-04T04:49:45.777Z,98398.59
2024-01-04T04:54:42.223Z,98409.44
2024-01-04T04:59:39.339Z,98426.53
2024-01-04T05:04:35.930Z,98416.53
2024-01-04T05:09:32.328Z,98435.16
2024-01-04T05:14:28.770Z,98447.53
2024-01-04T05:19:25.537Z,98467.78
2024-01-04T05:24:22.033Z,98471.25
2024-01-04T05:29:18.435Z,98485.97
2024-01-04T05:34:14.942Z,98507.63
2024-01-04T05:39:12.099Z,98498.66
2024-01-04T05:44:08.657Z,98505.88
2024-01-04T05:49:05.186Z,98503.25
2024-01-04T05:54:03.701Z,98520.19
2024-01-04T05:59:00.246Z,98521.03
2024-01-04T06:03:56.718Z,98524.94
2024-01-04T06:08:53.243Z,98536.06
2024-01-04T06:13:49.706Z,98549.25
2024-01-04T06:18:46.571Z,98557.69
2024-01-04T06:23:43.068Z,98569.22
2024-01-04T06:28:39.488Z,98575.78
2024-01-04T06:33:36.035Z,98587.84
2024-01-04T06:38:33.017Z,98592.44
2024-01-04T06:43:29.752Z,98609.13
2024-01-04T06:48:26.739Z,98614.53
2024-01-04T06:53:23.175Z,98627.34
2024-01-04T06:58:19.596Z,98631.50
2024-01-04T07:03:18.108Z,98639.69
2024-01-04T07:08:14.599Z,98639.41
2024-01-04T07:13:10.988Z,98639.56
2024-01-04T07:18:07.959Z,98654.56
2024-01-04T07:23:05.646Z,98649.69
2024-01-04T07:28:04.612Z,98652.47
2024-01-04T07:33:03.201Z,98662.19
2024-01-04T07:38:01.268Z,98687.31
2024-01-04T07:42:57.622Z,98693.44
2024-01-04T07:47:54.118Z,98697.16
2024-01-04T07:52:50.542Z,98711.19
2024-01-04T07:57:46.890Z,98721.34
2024-01-04T08:02:43.540Z,98753.63
2024-01-04T08:07:39.927Z,98762.91
2024-01-04T08:12:36.306Z,98761.56
2024-01-04T08:17:32.713Z,98782.06
2024-01-04T08:22:29.142Z,98792.75
2024-01-04T08:27:25.615Z,98792.03
2024-01-04T08:32:22.002Z,98793.00
2024-01-04T08:37:20.088Z,98813.13
2024-01-04T08:42:19.549Z,98816.84
2024-01-04T08:47:17.149Z,98820.56
2024-01-04T08:52:13.504Z,98823.94
2024-01-04T08:57:09.915Z,98835.31
2024-01-04T09:02:08.030Z,98839.63
2024-01-04T09:07:05.153Z,98842.25
2024-01-04T09:12:02.108Z,98841.69
2024-01-04T09:17:00.545Z,98861.94
2024-01-04T09:21:56.902Z,98853.06
2024-01-04T09:26:53.542Z,98860.25
2024-01-04T09:31:50.000Z,98869.00
2024-01-04T09:36:46.913Z,98890.94
2024-01-04T09:41:46.375Z,98899.69
2024-01-04T09:46:43.759Z,98899.81
2024-01-04T09:51:42.062Z,98908.34
2024-01-04T09:56:47.744Z,98917.19
2024-01-04T10:01:44.386Z,98923.06
2024-01-04T10:06:42.577Z,98923.41
2024-01-04T10:11:55.857Z,98932.88
2024-01-04T10:16:53.022Z,98922.41
2024-01-04T10:21:49.831Z,98927.94
2024-01-04T10:26:54.756Z,98941.03
2024-01-04T10:32:01.457Z,98943.84
2024-01-04T10:37:23.622Z,98941.34
2024-01-04T10:42:20.227Z,98952.16
2024-01-04T10:47:18.428Z,98955.72
2024-01-04T10:52:17.298Z,98960.03
2024-01-04T10:57:14.537Z,98969.25
2024-01-04T11:02:14.445Z,98975.63
2024-01-04T11:07:10.970Z,98985.69
2024-01-04T11:12:09.622Z,98985.91
2024-01-04T11:17:19.213Z,98981.63
2024-01-04T11:22:35.775Z,98990.88
2024-01-04T11:27:33.043Z,98983.66
2024-01-04T11:32:35.257Z,98993.97
2024-01-04T11:37:33.504Z,98996.84
2024-01-04T11:42:40.818Z,99000.69
2024-01-04T11:47:40.032Z,99008.75
2024-01-04T11:52:36.585Z,98998.88
2024-01-04T11:57:33.167Z,98990.63
2024-01-04T12:02:31.585Z,99005.38
2024-01-04T12:07:29.253Z,99002.00
2024-01-04T12:12:25.776Z,99003.19
2024-01-04T12:17:22.242Z,99002.84
2024-01-04T12:22:18.796Z,99004.63
2024-01-04T12:27:15.275Z,99002.72
2024-01-04T12:32:15.361Z,99006.44
2024-01-04T12:37:22.390Z,99002.94
2024-01-04T12:42:19.562Z,99006.19
2024-01-04T12:47:21.622Z,99016.13
2024-01-04T12:52:18.151Z,99025.59
2024-01-04T12:57:15.010Z,99025.00
2024-01-04T13:02:12.701Z,99021.06
2024-01-04T13:07:11.238Z,99028.28
2024-01-04T13:12:09.481Z,99033.19
2024-01-04T13:17:05.898Z,99032.94
2024-01-04T13:22:02.249Z,99037.38
2024-01-04T13:26:58.715Z,99039.06
2024-01-04T13:31:55.190Z,99037.75
2024-01-04T13:36:51.717Z,99045.41
2024-01-04T13:41:49.026Z,99049.47
2024-01-04T13:46:45.413Z,99043.59
2024-01-04T13:51:44.817Z,99053.56
2024-01-04T13:56:41.550Z,99058.00
2024-01-04T14:01:38.066Z,99069.66
2024-01-04T14:06:34.552Z,99075.06
2024-01-04T14:11:30.984Z,99074.22
2024-01-04T14:16:27.486Z,99082.63
2024-01-04T14:21:24.379Z,99092.94
2024-01-04T14:26:21.073Z,99107.31
2024-01-04T14:31:18.981Z,99106.38
2024-01-04T14:36:17.035Z,99111.41
2024-01-04T14:41:13.490Z,99114.28
2024-01-04T14:46:20.620Z,99118.13
2024-01-04T14:51:24.413Z,99112.59
2024-01-04T14:56:22.513Z,99115.47
2024-01-04T15:01:22.309Z,99115.22
2024-01-04T15:06:20.494Z,99113.56
2024-01-04T15:11:17.071Z,99128.06
2024-01-04T15:16:13.501Z,99134.06
2024-01-04T15:21:09.962Z,99146.06
2024-01-04T15:26:06.450Z,99142.56
2024-01-04T15:31:05.481Z,99148.34
2024-01-04T15:36:02.362Z,99156.94
2024-01-04T15:40:59.063Z,99163.66
2024-01-04T15:45:55.677Z,99173.25
2024-01-04T15:50:52.943Z,99182.34
2024-01-04T15:55:49.358Z,99180.16
2024-01-04T16:00:45.879Z,99191.41
2024-01-04T16:05:42.450Z,99184.31
2024-01-04T16:10:38.881Z,99191.59
2024-01-04T16:15:35.578Z,99194.97
2024-01-04T16:20:36.804Z,99195.25
2024-01-04T16:25:34.658Z,99189.00
2024-01-04T16:30:31.129Z,99202.56
2024-01-04T16:35:28.262Z,99200.72
2024-01-04T16:40:24.713Z,99200.22
2024-01-04T16:45:21.752Z,99207.84
2024-01-04T16:50:19.210Z,99220.91
2024-01-04T16:55:16.503Z,99213.59
2024-01-04T17:00:13.670Z,99209.59
2024-01-04T17:05:11.124Z,99217.75
2024-01-04T17:10:08.321Z,99220.59
2024-01-04T17:15:07.448Z,99227.81
2024-01-04T17:20:06.232Z,99235.72
2024-01-04T17:25:02.819Z,99244.78
2024-01-04T17:30:01.213Z,99241.69
2024-01-04T17:34:58.746Z,99244.13
2024-01-04T17:39:55.756Z,99235.25
2024-01-04T17:44:52.197Z,99235.09
2024-01-04T17:49:48.768Z,99232.19
2024-01-04T17:54:46.174Z,99251.56
2024-01-04T17:59:43.254Z,99243.44
2024-01-04T18:04:39.741Z,99248.28
2024-01-04T18:09:36.208Z,99251.75
2024-01-04T18:14:32.633Z,99250.91
2024-01-04T18:19:29.114Z,99268.38
2024-01-04T18:24:27.648Z,99270.69
2024-01-04T18:29:24.627Z,99278.88
2024-01-04T18:34:23.371Z,99276.75
2024-01-04T18:39:20.902Z,99277.00
2024-01-04T18:44:17.803Z,99274.34
2024-01-04T18:49:14.367Z,99282.59
2024-01-04T18:54:10.987Z,99281.28
2024-01-04T18:59:07.506Z,99291.13
2024-01-04T19:04:04.082Z,99297.81
2024-01-04T19:09:00.799Z,99285.47
2024-01-04T19:13:57.847Z,99286.94
2024-01-04T19:18:56.166Z,99284.63
2024-01-04T19:23:53.389Z,99291.06
2024-01-04T19:28:50.753Z,99290.44
2024-01-04T19:33:47.646Z,99278.13
2024-01-04T19:38:44.252Z,99279.44
2024-01-04T19:43:40.678Z,99279.41
2024-01-04T19:48:37.405Z,99274.50
2024-01-04T19:53:33.846Z,99266.25
2024-01-04T19:58:32.055Z,99284.56
2024-01-04T20:03:28.699Z,99285.06
2024-01-04T20:08:25.166Z,99292.13
2024-01-04T20:13:21.616Z,99278.50
2024-01-04T20:18:18.154Z,99280.34
2024-01-04T20:23:14.652Z,99285.63
2024-01-04T20:28:11.253Z,99285.88
2024-01-04T20:33:07.922Z,99289.56
2024-01-04T20:38:04.437Z,99313.38
2024-01-04T20:43:02.774Z,99316.91
2024-01-04T20:47:59.401Z,99319.84
2024-01-04T20:52:55.863Z,99328.69
2024-01-04T20:57:52.410Z,99323.00
2024-01-04T21:02:48.845Z,99326.94
2024-01-04T21:07:45.300Z,99333.81
2024-01-04T21:12:41.693Z,99341.16
2024-01-04T21:17:38.342Z,99345.03
2024-01-04T21:22:34.798Z,99344.66
2024-01-04T21:27:31.176Z,99333.63
2024-01-04T21:32:27.718Z,99342.78
2024-01-04T21:37:24.086Z,99346.31
2024-01-04T21:42:20.702Z,99347.38
2024-01-04T21:47:17.162Z,99339.81
2024-01-04T21:52:13.566Z,99341.16
2024-01-04T21:57:10.012Z,99342.00
2024-01-04T22:02:06.905Z,99331.66
2024-01-04T22:07:03.420Z,99321.94
2024-01-04T22:12:01.961Z,99310.28
2024-01-04T22:16:59.650Z,99302.00
2024-01-04T22:21:56.298Z,99300.81
2024-01-04T22:26:52.896Z,99294.81
2024-01-04T22:31:49.336Z,99294.66
2024-01-04T22:36:46.429Z,99294.03
2024-01-04T22:41:43.146Z,99294.03
2024-01-04T22:46:39.853Z,99296.94
2024-01-04T22:51:36.555Z,99285.94
2024-01-04T22:56:32.959Z,99280.66
2024-01-04T23:01:29.447Z,99264.47
2024-01-04T23:06:27.604Z,99267.44
2024-01-04T23:11:24.105Z,99253.31
2024-01-04T23:16:20.529Z,99252.81
2024-01-04T23:21:17.183Z,99250.19
2024-01-04T23:26:13.580Z,99241.84
2024-01-04T23:31:10.109Z,99241.34
2024-01-04T23:36:07.459Z,99235.38
2024-01-04T23:41:04.018Z,99235.81
2024-01-04T23:46:00.386Z,99212.81
2024-01-04T23:50:56.723Z,99210.19
2024-01-04T23:55:53.124Z,99194.34
